sensor_id;sensor_type;location;lat;lon;timestamp;P1;durP1;ratioP1;P2;durP2;ratioP2
18443;SDS011;9350;53.176;8.194;2024-02-21T00:02:20;36.17;;;16.05;;
18443;SDS011;9350;53.176;8.194;2024-02-21T00:04:47;43.15;;;16.92;;
18443;SDS011;9350;53.176;8.194;2024-02-21T00:07:15;38.30;;;16.63;;
18443;SDS011;9350;53.176;8.194;2024-02-21T00:09:42;41.92;;;17.65;;
18443;SDS011;9350;53.176;8.194;2024-02-21T00:12:08;41.38;;;17.38;;
18443;SDS011;9350;53.176;8.194;2024-02-21T00:14:35;40.13;;;17.33;;
18443;SDS011;9350;53.176;8.194;2024-02-21T00:17:02;39.92;;;17.42;;
18443;SDS011;9350;53.176;8.194;2024-02-21T00:19:29;38.67;;;17.33;;
18443;SDS011;9350;53.176;8.194;2024-02-21T00:21:56;42.75;;;17.73;;
18443;SDS011;9350;53.176;8.194;2024-02-21T00:24:24;39.13;;;18.80;;
18443;SDS011;9350;53.176;8.194;2024-02-21T00:26:51;38.33;;;18.42;;
18443;SDS011;9350;53.176;8.194;2024-02-21T00:29:17;36.70;;;18.30;;
18443;SDS011;9350;53.176;8.194;2024-02-21T00:31:44;41.70;;;18.45;;
18443;SDS011;9350;53.176;8.194;2024-02-21T00:34:10;38.58;;;17.83;;
18443;SDS011;9350;53.176;8.194;2024-02-21T00:36:38;36.35;;;17.95;;
18443;SDS011;9350;53.176;8.194;2024-02-21T00:39:04;34.58;;;16.95;;
18443;SDS011;9350;53.176;8.194;2024-02-21T00:41:32;44.30;;;16.83;;
18443;SDS011;9350;53.176;8.194;2024-02-21T00:43:59;32.90;;;16.25;;
18443;SDS011;9350;53.176;8.194;2024-02-21T00:46:26;42.30;;;17.25;;
18443;SDS011;9350;53.176;8.194;2024-02-21T00:48:53;38.35;;;16.95;;
18443;SDS011;9350;53.176;8.194;2024-02-21T00:51:19;41.28;;;16.67;;
18443;SDS011;9350;53.176;8.194;2024-02-21T00:53:46;42.85;;;17.00;;
18443;SDS011;9350;53.176;8.194;2024-02-21T00:56:13;32.67;;;15.38;;
18443;SDS011;9350;53.176;8.194;2024-02-21T00:58:41;33.17;;;15.52;;
18443;SDS011;9350;53.176;8.194;2024-02-21T01:01:08;33.55;;;15.75;;
18443;SDS011;9350;53.176;8.194;2024-02-21T01:03:34;34.97;;;15.68;;
18443;SDS011;9350;53.176;8.194;2024-02-21T01:06:01;37.45;;;15.75;;
18443;SDS011;9350;53.176;8.194;2024-02-21T01:08:28;39.60;;;15.35;;
18443;SDS011;9350;53.176;8.194;2024-02-21T01:10:55;37.78;;;15.43;;
18443;SDS011;9350;53.176;8.194;2024-02-21T01:13:22;35.08;;;15.98;;
18443;SDS011;9350;53.176;8.194;2024-02-21T01:15:50;30.17;;;14.02;;
18443;SDS011;9350;53.176;8.194;2024-02-21T01:18:17;32.10;;;13.38;;
18443;SDS011;9350;53.176;8.194;2024-02-21T01:20:43;35.28;;;14.65;;
18443;SDS011;9350;53.176;8.194;2024-02-21T01:23:10;32.30;;;15.57;;
18443;SDS011;9350;53.176;8.194;2024-02-21T01:25:37;30.27;;;13.90;;
18443;SDS011;9350;53.176;8.194;2024-02-21T01:28:04;33.80;;;14.40;;
18443;SDS011;9350;53.176;8.194;2024-02-21T01:30:31;29.42;;;13.77;;
18443;SDS011;9350;53.176;8.194;2024-02-21T01:32:59;29.45;;;13.80;;
18443;SDS011;9350;53.176;8.194;2024-02-21T01:35:26;32.17;;;13.82;;
18443;SDS011;9350;53.176;8.194;2024-02-21T01:37:53;34.00;;;14.65;;
18443;SDS011;9350;53.176;8.194;2024-02-21T01:40:19;30.77;;;14.38;;
18443;SDS011;9350;53.176;8.194;2024-02-21T01:42:46;30.10;;;14.20;;
18443;SDS011;9350;53.176;8.194;2024-02-21T01:45:13;31.10;;;13.35;;
18443;SDS011;9350;53.176;8.194;2024-02-21T01:47:41;25.52;;;13.32;;
18443;SDS011;9350;53.176;8.194;2024-02-21T01:50:09;38.58;;;13.98;;
18443;SDS011;9350;53.176;8.194;2024-02-21T01:52:38;33.45;;;13.75;;
18443;SDS011;9350;53.176;8.194;2024-02-21T01:55:05;36.10;;;14.15;;
18443;SDS011;9350;53.176;8.194;2024-02-21T01:57:33;35.60;;;13.65;;
18443;SDS011;9350;53.176;8.194;2024-02-21T02:00:00;32.53;;;13.50;;
18443;SDS011;9350;53.176;8.194;2024-02-21T02:02:27;30.05;;;13.55;;
18443;SDS011;9350;53.176;8.194;2024-02-21T02:04:54;26.48;;;13.50;;
18443;SDS011;9350;53.176;8.194;2024-02-21T02:07:24;33.30;;;13.05;;
18443;SDS011;9350;53.176;8.194;2024-02-21T02:09:50;36.38;;;12.98;;
18443;SDS011;9350;53.176;8.194;2024-02-21T02:12:17;25.55;;;12.20;;
18443;SDS011;9350;53.176;8.194;2024-02-21T02:14:44;30.27;;;13.07;;
18443;SDS011;9350;53.176;8.194;2024-02-21T02:17:11;34.53;;;13.38;;
18443;SDS011;9350;53.176;8.194;2024-02-21T02:19:37;28.08;;;12.25;;
18443;SDS011;9350;53.176;8.194;2024-02-21T02:22:06;25.48;;;12.45;;
18443;SDS011;9350;53.176;8.194;2024-02-21T02:24:42;28.13;;;12.60;;
18443;SDS011;9350;53.176;8.194;2024-02-21T02:27:09;29.95;;;13.20;;
18443;SDS011;9350;53.176;8.194;2024-02-21T02:29:36;25.15;;;11.90;;
18443;SDS011;9350;53.176;8.194;2024-02-21T02:32:03;27.50;;;12.23;;
18443;SDS011;9350;53.176;8.194;2024-02-21T02:34:30;30.30;;;12.32;;
18443;SDS011;9350;53.176;8.194;2024-02-21T02:36:57;33.72;;;12.38;;
18443;SDS011;9350;53.176;8.194;2024-02-21T02:39:24;30.88;;;13.65;;
18443;SDS011;9350;53.176;8.194;2024-02-21T02:41:52;29.52;;;12.50;;
18443;SDS011;9350;53.176;8.194;2024-02-21T02:44:19;32.58;;;11.27;;
18443;SDS011;9350;53.176;8.194;2024-02-21T02:46:45;31.02;;;12.68;;
18443;SDS011;9350;53.176;8.194;2024-02-21T02:49:12;27.27;;;11.88;;
18443;SDS011;9350;53.176;8.194;2024-02-21T02:51:41;26.85;;;12.98;;
18443;SDS011;9350;53.176;8.194;2024-02-21T02:54:08;26.55;;;11.77;;
18443;SDS011;9350;53.176;8.194;2024-02-21T02:56:35;36.83;;;12.73;;
18443;SDS011;9350;53.176;8.194;2024-02-21T02:59:03;26.90;;;12.43;;
18443;SDS011;9350;53.176;8.194;2024-02-21T03:01:33;25.15;;;12.27;;
18443;SDS011;9350;53.176;8.194;2024-02-21T03:04:01;31.55;;;12.45;;
18443;SDS011;9350;53.176;8.194;2024-02-21T03:06:28;27.55;;;12.57;;
18443;SDS011;9350;53.176;8.194;2024-02-21T03:08:55;29.50;;;12.25;;
18443;SDS011;9350;53.176;8.194;2024-02-21T03:11:22;38.92;;;13.57;;
18443;SDS011;9350;53.176;8.194;2024-02-21T03:13:53;35.75;;;13.68;;
18443;SDS011;9350;53.176;8.194;2024-02-21T03:16:22;25.77;;;12.82;;
18443;SDS011;9350;53.176;8.194;2024-02-21T03:18:49;35.08;;;14.23;;
18443;SDS011;9350;53.176;8.194;2024-02-21T03:21:15;30.65;;;12.88;;
18443;SDS011;9350;53.176;8.194;2024-02-21T03:23:42;30.58;;;13.18;;
18443;SDS011;9350;53.176;8.194;2024-02-21T03:26:09;32.17;;;13.93;;
18443;SDS011;9350;53.176;8.194;2024-02-21T03:28:36;37.95;;;13.90;;
18443;SDS011;9350;53.176;8.194;2024-02-21T03:31:04;31.35;;;13.98;;
18443;SDS011;9350;53.176;8.194;2024-02-21T03:33:32;36.25;;;14.20;;
18443;SDS011;9350;53.176;8.194;2024-02-21T03:35:59;35.40;;;13.38;;
18443;SDS011;9350;53.176;8.194;2024-02-21T03:38:26;34.85;;;13.95;;
18443;SDS011;9350;53.176;8.194;2024-02-21T03:40:53;33.22;;;13.15;;
18443;SDS011;9350;53.176;8.194;2024-02-21T03:43:19;34.30;;;13.90;;
18443;SDS011;9350;53.176;8.194;2024-02-21T03:45:46;29.17;;;13.18;;
18443;SDS011;9350;53.176;8.194;2024-02-21T03:48:13;32.75;;;13.90;;
18443;SDS011;9350;53.176;8.194;2024-02-21T03:50:41;30.98;;;12.75;;
18443;SDS011;9350;53.176;8.194;2024-02-21T03:53:08;28.88;;;13.10;;
18443;SDS011;9350;53.176;8.194;2024-02-21T03:55:35;26.63;;;12.57;;
18443;SDS011;9350;53.176;8.194;2024-02-21T03:58:02;27.10;;;12.10;;
18443;SDS011;9350;53.176;8.194;2024-02-21T04:00:29;26.70;;;12.52;;
18443;SDS011;9350;53.176;8.194;2024-02-21T04:02:56;27.83;;;11.77;;
18443;SDS011;9350;53.176;8.194;2024-02-21T04:05:22;25.15;;;11.98;;
18443;SDS011;9350;53.176;8.194;2024-02-21T04:07:51;22.50;;;11.50;;
18443;SDS011;9350;53.176;8.194;2024-02-21T04:10:17;24.05;;;11.60;;
18443;SDS011;9350;53.176;8.194;2024-02-21T04:12:44;25.40;;;10.95;;
18443;SDS011;9350;53.176;8.194;2024-02-21T04:15:11;23.60;;;11.02;;
18443;SDS011;9350;53.176;8.194;2024-02-21T04:17:38;22.50;;;10.13;;
18443;SDS011;9350;53.176;8.194;2024-02-21T04:20:05;24.52;;;10.80;;
18443;SDS011;9350;53.176;8.194;2024-02-21T04:22:33;22.95;;;10.45;;
18443;SDS011;9350;53.176;8.194;2024-02-21T04:25:01;19.48;;;10.15;;
18443;SDS011;9350;53.176;8.194;2024-02-21T04:27:29;18.90;;;10.20;;
18443;SDS011;9350;53.176;8.194;2024-02-21T04:29:55;17.80;;;9.00;;
18443;SDS011;9350;53.176;8.194;2024-02-21T04:32:22;20.67;;;9.20;;
18443;SDS011;9350;53.176;8.194;2024-02-21T04:34:49;18.40;;;9.23;;
18443;SDS011;9350;53.176;8.194;2024-02-21T04:37:16;17.60;;;9.45;;
18443;SDS011;9350;53.176;8.194;2024-02-21T04:39:43;20.95;;;10.15;;
18443;SDS011;9350;53.176;8.194;2024-02-21T04:42:11;18.60;;;10.50;;
18443;SDS011;9350;53.176;8.194;2024-02-21T04:44:38;19.33;;;9.80;;
18443;SDS011;9350;53.176;8.194;2024-02-21T04:47:05;17.05;;;9.80;;
18443;SDS011;9350;53.176;8.194;2024-02-21T04:49:32;14.80;;;9.13;;
18443;SDS011;9350;53.176;8.194;2024-02-21T04:51:59;22.00;;;9.82;;
18443;SDS011;9350;53.176;8.194;2024-02-21T04:54:26;16.38;;;8.68;;
18443;SDS011;9350;53.176;8.194;2024-02-21T04:56:53;19.17;;;9.32;;
18443;SDS011;9350;53.176;8.194;2024-02-21T04:59:21;18.83;;;9.00;;
18443;SDS011;9350;53.176;8.194;2024-02-21T05:01:48;21.15;;;8.98;;
18443;SDS011;9350;53.176;8.194;2024-02-21T05:04:15;14.05;;;8.95;;
18443;SDS011;9350;53.176;8.194;2024-02-21T05:06:42;18.73;;;8.80;;
18443;SDS011;9350;53.176;8.194;2024-02-21T05:09:09;18.65;;;8.45;;
18443;SDS011;9350;53.176;8.194;2024-02-21T05:11:36;13.98;;;8.32;;
18443;SDS011;9350;53.176;8.194;2024-02-21T05:14:03;17.60;;;7.85;;
18443;SDS011;9350;53.176;8.194;2024-02-21T05:16:32;12.15;;;7.53;;
18443;SDS011;9350;53.176;8.194;2024-02-21T05:18:58;12.30;;;8.30;;
18443;SDS011;9350;53.176;8.194;2024-02-21T05:21:25;15.90;;;8.07;;
18443;SDS011;9350;53.176;8.194;2024-02-21T05:23:53;17.20;;;8.10;;
18443;SDS011;9350;53.176;8.194;2024-02-21T05:26:20;10.43;;;7.70;;
18443;SDS011;9350;53.176;8.194;2024-02-21T05:28:47;13.60;;;7.97;;
18443;SDS011;9350;53.176;8.194;2024-02-21T05:31:15;12.68;;;7.88;;
18443;SDS011;9350;53.176;8.194;2024-02-21T05:33:43;14.57;;;7.65;;
18443;SDS011;9350;53.176;8.194;2024-02-21T05:36:10;14.32;;;7.95;;
18443;SDS011;9350;53.176;8.194;2024-02-21T05:38:36;11.00;;;6.93;;
18443;SDS011;9350;53.176;8.194;2024-02-21T05:41:04;11.60;;;7.38;;
18443;SDS011;9350;53.176;8.194;2024-02-21T05:43:31;10.52;;;6.82;;
18443;SDS011;9350;53.176;8.194;2024-02-21T05:45:58;12.02;;;7.05;;
18443;SDS011;9350;53.176;8.194;2024-02-21T05:48:25;11.65;;;6.80;;
18443;SDS011;9350;53.176;8.194;2024-02-21T05:50:53;14.38;;;7.10;;
18443;SDS011;9350;53.176;8.194;2024-02-21T05:53:20;12.07;;;7.07;;
18443;SDS011;9350;53.176;8.194;2024-02-21T05:55:47;10.57;;;6.53;;
18443;SDS011;9350;53.176;8.194;2024-02-21T05:58:13;11.02;;;6.65;;
18443;SDS011;9350;53.176;8.194;2024-02-21T06:00:40;15.73;;;6.88;;
18443;SDS011;9350;53.176;8.194;2024-02-21T06:03:07;11.25;;;6.78;;
18443;SDS011;9350;53.176;8.194;2024-02-21T06:05:36;15.27;;;7.30;;
18443;SDS011;9350;53.176;8.194;2024-02-21T06:08:05;11.80;;;6.88;;
18443;SDS011;9350;53.176;8.194;2024-02-21T06:10:32;10.60;;;7.10;;
18443;SDS011;9350;53.176;8.194;2024-02-21T06:12:59;10.02;;;6.90;;
18443;SDS011;9350;53.176;8.194;2024-02-21T06:15:25;11.07;;;6.22;;
18443;SDS011;9350;53.176;8.194;2024-02-21T06:17:52;8.80;;;6.15;;
18443;SDS011;9350;53.176;8.194;2024-02-21T06:20:19;9.52;;;6.15;;
18443;SDS011;9350;53.176;8.194;2024-02-21T06:22:46;11.77;;;7.13;;
18443;SDS011;9350;53.176;8.194;2024-02-21T06:25:14;11.32;;;6.72;;
18443;SDS011;9350;53.176;8.194;2024-02-21T06:27:41;11.35;;;7.03;;
18443;SDS011;9350;53.176;8.194;2024-02-21T06:30:08;11.57;;;7.40;;
18443;SDS011;9350;53.176;8.194;2024-02-21T06:32:35;12.90;;;6.60;;
18443;SDS011;9350;53.176;8.194;2024-02-21T06:35:03;11.52;;;7.28;;
18443;SDS011;9350;53.176;8.194;2024-02-21T06:37:30;13.73;;;7.45;;
18443;SDS011;9350;53.176;8.194;2024-02-21T06:39:57;17.25;;;7.65;;
18443;SDS011;9350;53.176;8.194;2024-02-21T06:42:25;10.50;;;6.85;;
18443;SDS011;9350;53.176;8.194;2024-02-21T06:44:52;15.25;;;7.72;;
18443;SDS011;9350;53.176;8.194;2024-02-21T06:47:21;14.32;;;7.97;;
18443;SDS011;9350;53.176;8.194;2024-02-21T06:49:48;15.60;;;7.88;;
18443;SDS011;9350;53.176;8.194;2024-02-21T06:52:17;16.20;;;8.40;;
18443;SDS011;9350;53.176;8.194;2024-02-21T06:54:45;15.93;;;8.85;;
18443;SDS011;9350;53.176;8.194;2024-02-21T06:57:12;22.45;;;8.93;;
18443;SDS011;9350;53.176;8.194;2024-02-21T06:59:42;18.33;;;8.43;;
18443;SDS011;9350;53.176;8.194;2024-02-21T07:02:09;18.00;;;8.70;;
18443;SDS011;9350;53.176;8.194;2024-02-21T07:04:35;20.35;;;9.45;;
18443;SDS011;9350;53.176;8.194;2024-02-21T07:07:02;19.92;;;9.70;;
18443;SDS011;9350;53.176;8.194;2024-02-21T07:09:29;14.05;;;8.88;;
18443;SDS011;9350;53.176;8.194;2024-02-21T07:11:57;16.77;;;9.43;;
18443;SDS011;9350;53.176;8.194;2024-02-21T07:14:23;14.70;;;9.20;;
18443;SDS011;9350;53.176;8.194;2024-02-21T07:16:52;18.67;;;10.02;;
18443;SDS011;9350;53.176;8.194;2024-02-21T07:19:19;14.93;;;9.25;;
18443;SDS011;9350;53.176;8.194;2024-02-21T07:21:46;18.55;;;10.30;;
18443;SDS011;9350;53.176;8.194;2024-02-21T07:24:13;20.05;;;10.02;;
18443;SDS011;9350;53.176;8.194;2024-02-21T07:26:40;21.67;;;11.48;;
18443;SDS011;9350;53.176;8.194;2024-02-21T07:29:08;26.50;;;11.05;;
18443;SDS011;9350;53.176;8.194;2024-02-21T07:31:38;23.88;;;11.18;;
18443;SDS011;9350;53.176;8.194;2024-02-21T07:34:08;26.90;;;11.20;;
18443;SDS011;9350;53.176;8.194;2024-02-21T07:36:35;23.60;;;11.63;;
18443;SDS011;9350;53.176;8.194;2024-02-21T07:39:02;28.33;;;11.35;;
18443;SDS011;9350;53.176;8.194;2024-02-21T07:41:29;27.00;;;12.07;;
18443;SDS011;9350;53.176;8.194;2024-02-21T07:43:56;22.67;;;11.60;;
18443;SDS011;9350;53.176;8.194;2024-02-21T07:46:23;27.58;;;12.65;;
18443;SDS011;9350;53.176;8.194;2024-02-21T07:48:50;31.60;;;13.38;;
18443;SDS011;9350;53.176;8.194;2024-02-21T07:51:18;37.53;;;14.38;;
18443;SDS011;9350;53.176;8.194;2024-02-21T07:53:45;29.15;;;12.65;;
18443;SDS011;9350;53.176;8.194;2024-02-21T07:56:12;27.63;;;12.23;;
18443;SDS011;9350;53.176;8.194;2024-02-21T07:58:40;30.30;;;13.75;;
18443;SDS011;9350;53.176;8.194;2024-02-21T08:01:07;26.92;;;12.95;;
18443;SDS011;9350;53.176;8.194;2024-02-21T08:03:34;25.73;;;13.15;;
18443;SDS011;9350;53.176;8.194;2024-02-21T08:06:01;31.85;;;12.45;;
18443;SDS011;9350;53.176;8.194;2024-02-21T08:08:30;30.70;;;13.07;;
18443;SDS011;9350;53.176;8.194;2024-02-21T08:10:57;32.63;;;13.38;;
18443;SDS011;9350;53.176;8.194;2024-02-21T08:13:24;28.40;;;12.20;;
18443;SDS011;9350;53.176;8.194;2024-02-21T08:15:53;31.90;;;12.85;;
18443;SDS011;9350;53.176;8.194;2024-02-21T08:18:20;32.80;;;13.40;;
18443;SDS011;9350;53.176;8.194;2024-02-21T08:20:47;37.25;;;13.98;;
18443;SDS011;9350;53.176;8.194;2024-02-21T08:23:15;31.17;;;13.90;;
18443;SDS011;9350;53.176;8.194;2024-02-21T08:25:44;32.17;;;14.02;;
18443;SDS011;9350;53.176;8.194;2024-02-21T08:28:11;31.67;;;13.80;;
18443;SDS011;9350;53.176;8.194;2024-02-21T08:30:38;44.78;;;15.55;;
18443;SDS011;9350;53.176;8.194;2024-02-21T08:33:05;33.38;;;14.05;;
18443;SDS011;9350;53.176;8.194;2024-02-21T08:35:32;35.83;;;14.38;;
18443;SDS011;9350;53.176;8.194;2024-02-21T08:37:59;33.88;;;14.25;;
18443;SDS011;9350;53.176;8.194;2024-02-21T08:40:25;44.63;;;15.15;;
18443;SDS011;9350;53.176;8.194;2024-02-21T08:42:54;38.78;;;15.13;;
18443;SDS011;9350;53.176;8.194;2024-02-21T08:45:20;29.60;;;13.52;;
18443;SDS011;9350;53.176;8.194;2024-02-21T08:47:47;33.75;;;14.38;;
18443;SDS011;9350;53.176;8.194;2024-02-21T08:50:14;34.72;;;14.02;;
18443;SDS011;9350;53.176;8.194;2024-02-21T08:52:41;35.38;;;14.35;;
18443;SDS011;9350;53.176;8.194;2024-02-21T08:55:08;30.15;;;13.98;;
18443;SDS011;9350;53.176;8.194;2024-02-21T08:57:35;32.65;;;14.10;;
18443;SDS011;9350;53.176;8.194;2024-02-21T09:00:07;27.08;;;12.70;;
18443;SDS011;9350;53.176;8.194;2024-02-21T09:02:36;31.60;;;13.05;;
18443;SDS011;9350;53.176;8.194;2024-02-21T09:05:04;30.63;;;13.18;;
18443;SDS011;9350;53.176;8.194;2024-02-21T09:07:31;29.38;;;13.60;;
18443;SDS011;9350;53.176;8.194;2024-02-21T09:09:58;27.17;;;13.05;;
18443;SDS011;9350;53.176;8.194;2024-02-21T09:12:25;34.60;;;12.73;;
18443;SDS011;9350;53.176;8.194;2024-02-21T09:14:52;30.38;;;14.13;;
18443;SDS011;9350;53.176;8.194;2024-02-21T09:17:20;29.05;;;13.18;;
18443;SDS011;9350;53.176;8.194;2024-02-21T09:19:48;35.78;;;13.98;;
18443;SDS011;9350;53.176;8.194;2024-02-21T09:22:14;27.67;;;13.48;;
18443;SDS011;9350;53.176;8.194;2024-02-21T09:24:41;32.22;;;13.88;;
18443;SDS011;9350;53.176;8.194;2024-02-21T09:27:08;32.17;;;13.52;;
18443;SDS011;9350;53.176;8.194;2024-02-21T09:29:35;27.92;;;13.43;;
18443;SDS011;9350;53.176;8.194;2024-02-21T09:32:02;26.10;;;12.73;;
18443;SDS011;9350;53.176;8.194;2024-02-21T09:34:30;30.77;;;13.52;;
18443;SDS011;9350;53.176;8.194;2024-02-21T09:36:57;31.35;;;13.63;;
18443;SDS011;9350;53.176;8.194;2024-02-21T09:39:24;31.73;;;13.48;;
18443;SDS011;9350;53.176;8.194;2024-02-21T09:41:53;31.80;;;14.25;;
18443;SDS011;9350;53.176;8.194;2024-02-21T09:44:24;32.67;;;13.60;;
18443;SDS011;9350;53.176;8.194;2024-02-21T09:47:01;32.15;;;14.13;;
18443;SDS011;9350;53.176;8.194;2024-02-21T09:49:32;35.33;;;13.15;;
18443;SDS011;9350;53.176;8.194;2024-02-21T09:52:03;34.10;;;13.77;;
18443;SDS011;9350;53.176;8.194;2024-02-21T09:54:32;30.85;;;14.50;;
18443;SDS011;9350;53.176;8.194;2024-02-21T09:56:59;34.28;;;14.25;;
18443;SDS011;9350;53.176;8.194;2024-02-21T09:59:26;40.17;;;15.80;;
18443;SDS011;9350;53.176;8.194;2024-02-21T10:01:54;28.15;;;14.45;;
18443;SDS011;9350;53.176;8.194;2024-02-21T10:04:21;34.45;;;14.73;;
18443;SDS011;9350;53.176;8.194;2024-02-21T10:06:49;35.00;;;15.23;;
18443;SDS011;9350;53.176;8.194;2024-02-21T10:09:20;30.73;;;14.23;;
18443;SDS011;9350;53.176;8.194;2024-02-21T10:11:48;34.80;;;15.10;;
18443;SDS011;9350;53.176;8.194;2024-02-21T10:14:15;34.50;;;14.20;;
18443;SDS011;9350;53.176;8.194;2024-02-21T10:16:42;35.30;;;13.98;;
18443;SDS011;9350;53.176;8.194;2024-02-21T10:19:15;33.50;;;14.45;;
18443;SDS011;9350;53.176;8.194;2024-02-21T10:21:43;27.85;;;14.30;;
18443;SDS011;9350;53.176;8.194;2024-02-21T10:24:12;32.67;;;14.40;;
18443;SDS011;9350;53.176;8.194;2024-02-21T10:26:39;31.15;;;14.73;;
18443;SDS011;9350;53.176;8.194;2024-02-21T10:29:06;26.50;;;13.60;;
18443;SDS011;9350;53.176;8.194;2024-02-21T10:31:32;23.30;;;13.65;;
18443;SDS011;9350;53.176;8.194;2024-02-21T10:34:00;33.67;;;14.23;;
18443;SDS011;9350;53.176;8.194;2024-02-21T10:36:28;25.95;;;13.63;;
18443;SDS011;9350;53.176;8.194;2024-02-21T10:38:55;24.52;;;13.15;;
18443;SDS011;9350;53.176;8.194;2024-02-21T10:41:24;27.35;;;12.70;;
18443;SDS011;9350;53.176;8.194;2024-02-21T10:43:53;26.67;;;13.15;;
18443;SDS011;9350;53.176;8.194;2024-02-21T10:46:24;24.98;;;12.73;;
18443;SDS011;9350;53.176;8.194;2024-02-21T10:48:57;30.98;;;13.10;;
18443;SDS011;9350;53.176;8.194;2024-02-21T10:51:33;29.13;;;12.60;;
18443;SDS011;9350;53.176;8.194;2024-02-21T10:54:07;24.63;;;14.02;;
18443;SDS011;9350;53.176;8.194;2024-02-21T10:56:45;29.52;;;13.13;;
18443;SDS011;9350;53.176;8.194;2024-02-21T10:59:14;26.20;;;12.90;;
18443;SDS011;9350;53.176;8.194;2024-02-21T11:01:43;29.33;;;12.57;;
18443;SDS011;9350;53.176;8.194;2024-02-21T11:04:11;31.52;;;13.52;;
18443;SDS011;9350;53.176;8.194;2024-02-21T11:06:38;28.27;;;13.38;;
18443;SDS011;9350;53.176;8.194;2024-02-21T11:09:07;27.58;;;12.65;;
18443;SDS011;9350;53.176;8.194;2024-02-21T11:11:35;30.17;;;13.35;;
18443;SDS011;9350;53.176;8.194;2024-02-21T11:14:06;23.52;;;14.18;;
18443;SDS011;9350;53.176;8.194;2024-02-21T11:16:37;27.23;;;12.60;;
18443;SDS011;9350;53.176;8.194;2024-02-21T11:19:06;25.42;;;12.77;;
18443;SDS011;9350;53.176;8.194;2024-02-21T11:21:34;24.40;;;12.13;;
18443;SDS011;9350;53.176;8.194;2024-02-21T11:24:01;23.95;;;11.73;;
18443;SDS011;9350;53.176;8.194;2024-02-21T11:26:29;26.38;;;12.43;;
18443;SDS011;9350;53.176;8.194;2024-02-21T11:28:57;23.00;;;11.32;;
18443;SDS011;9350;53.176;8.194;2024-02-21T11:31:26;26.23;;;11.05;;
18443;SDS011;9350;53.176;8.194;2024-02-21T11:33:53;27.45;;;12.00;;
18443;SDS011;9350;53.176;8.194;2024-02-21T11:36:24;27.38;;;11.40;;
18443;SDS011;9350;53.176;8.194;2024-02-21T11:38:51;24.85;;;11.48;;
18443;SDS011;9350;53.176;8.194;2024-02-21T11:41:18;21.55;;;10.90;;
18443;SDS011;9350;53.176;8.194;2024-02-21T11:43:46;20.88;;;10.48;;
18443;SDS011;9350;53.176;8.194;2024-02-21T11:46:13;19.00;;;10.32;;
18443;SDS011;9350;53.176;8.194;2024-02-21T11:48:42;17.77;;;10.50;;
18443;SDS011;9350;53.176;8.194;2024-02-21T11:51:09;20.95;;;10.55;;
18443;SDS011;9350;53.176;8.194;2024-02-21T11:53:36;19.50;;;10.18;;
18443;SDS011;9350;53.176;8.194;2024-02-21T11:56:03;20.27;;;10.52;;
18443;SDS011;9350;53.176;8.194;2024-02-21T11:58:31;18.73;;;9.43;;
18443;SDS011;9350;53.176;8.194;2024-02-21T12:00:57;16.70;;;9.15;;
18443;SDS011;9350;53.176;8.194;2024-02-21T12:03:24;16.33;;;8.07;;
18443;SDS011;9350;53.176;8.194;2024-02-21T12:05:53;17.02;;;8.48;;
18443;SDS011;9350;53.176;8.194;2024-02-21T12:08:22;17.38;;;8.85;;
18443;SDS011;9350;53.176;8.194;2024-02-21T12:10:49;16.70;;;7.95;;
18443;SDS011;9350;53.176;8.194;2024-02-21T12:13:16;18.88;;;7.97;;
18443;SDS011;9350;53.176;8.194;2024-02-21T12:15:47;13.77;;;7.47;;
18443;SDS011;9350;53.176;8.194;2024-02-21T12:18:14;13.70;;;7.43;;
18443;SDS011;9350;53.176;8.194;2024-02-21T12:20:42;13.93;;;7.43;;
18443;SDS011;9350;53.176;8.194;2024-02-21T12:23:12;15.52;;;7.05;;
18443;SDS011;9350;53.176;8.194;2024-02-21T12:25:39;15.20;;;7.50;;
18443;SDS011;9350;53.176;8.194;2024-02-21T12:28:06;13.57;;;6.72;;
18443;SDS011;9350;53.176;8.194;2024-02-21T12:30:33;18.38;;;7.13;;
18443;SDS011;9350;53.176;8.194;2024-02-21T12:33:03;14.70;;;7.10;;
18443;SDS011;9350;53.176;8.194;2024-02-21T12:35:30;15.63;;;6.68;;
18443;SDS011;9350;53.176;8.194;2024-02-21T12:37:58;14.48;;;6.70;;
18443;SDS011;9350;53.176;8.194;2024-02-21T12:40:28;10.23;;;6.30;;
18443;SDS011;9350;53.176;8.194;2024-02-21T12:42:57;10.93;;;6.05;;
18443;SDS011;9350;53.176;8.194;2024-02-21T12:45:25;11.55;;;6.05;;
18443;SDS011;9350;53.176;8.194;2024-02-21T12:47:55;12.95;;;6.13;;
18443;SDS011;9350;53.176;8.194;2024-02-21T12:50:22;12.23;;;5.68;;
18443;SDS011;9350;53.176;8.194;2024-02-21T12:52:49;15.10;;;5.57;;
18443;SDS011;9350;53.176;8.194;2024-02-21T12:55:16;12.57;;;5.60;;
18443;SDS011;9350;53.176;8.194;2024-02-21T12:57:44;11.90;;;5.18;;
18443;SDS011;9350;53.176;8.194;2024-02-21T13:00:11;13.65;;;5.45;;
18443;SDS011;9350;53.176;8.194;2024-02-21T13:02:39;12.60;;;5.55;;
18443;SDS011;9350;53.176;8.194;2024-02-21T13:05:06;16.23;;;5.70;;
18443;SDS011;9350;53.176;8.194;2024-02-21T13:07:33;10.98;;;5.45;;
18443;SDS011;9350;53.176;8.194;2024-02-21T13:10:00;11.30;;;5.70;;
18443;SDS011;9350;53.176;8.194;2024-02-21T13:12:27;6.85;;;4.95;;
18443;SDS011;9350;53.176;8.194;2024-02-21T13:14:56;7.25;;;4.75;;
18443;SDS011;9350;53.176;8.194;2024-02-21T13:17:23;10.10;;;5.30;;
18443;SDS011;9350;53.176;8.194;2024-02-21T13:19:55;12.48;;;5.38;;
18443;SDS011;9350;53.176;8.194;2024-02-21T13:22:22;9.95;;;4.95;;
18443;SDS011;9350;53.176;8.194;2024-02-21T13:24:50;11.00;;;5.25;;
18443;SDS011;9350;53.176;8.194;2024-02-21T13:27:17;8.50;;;5.20;;
18443;SDS011;9350;53.176;8.194;2024-02-21T13:29:44;12.27;;;5.43;;
18443;SDS011;9350;53.176;8.194;2024-02-21T13:32:12;8.82;;;5.45;;
18443;SDS011;9350;53.176;8.194;2024-02-21T13:34:40;8.68;;;4.85;;
18443;SDS011;9350;53.176;8.194;2024-02-21T13:37:07;11.70;;;5.55;;
18443;SDS011;9350;53.176;8.194;2024-02-21T13:39:34;10.25;;;5.40;;
18443;SDS011;9350;53.176;8.194;2024-02-21T13:42:01;5.60;;;4.57;;
18443;SDS011;9350;53.176;8.194;2024-02-21T13:44:30;8.57;;;4.55;;
18443;SDS011;9350;53.176;8.194;2024-02-21T13:46:57;8.82;;;4.95;;
18443;SDS011;9350;53.176;8.194;2024-02-21T13:49:25;7.55;;;4.80;;
18443;SDS011;9350;53.176;8.194;2024-02-21T13:51:51;9.93;;;5.13;;
18443;SDS011;9350;53.176;8.194;2024-02-21T13:54:18;9.07;;;5.13;;
18443;SDS011;9350;53.176;8.194;2024-02-21T13:56:46;9.45;;;5.13;;
18443;SDS011;9350;53.176;8.194;2024-02-21T13:59:13;8.30;;;4.60;;
18443;SDS011;9350;53.176;8.194;2024-02-21T14:01:40;8.35;;;4.80;;
18443;SDS011;9350;53.176;8.194;2024-02-21T14:04:08;6.22;;;4.00;;
18443;SDS011;9350;53.176;8.194;2024-02-21T14:06:36;6.78;;;4.20;;
18443;SDS011;9350;53.176;8.194;2024-02-21T14:09:08;6.88;;;4.45;;
18443;SDS011;9350;53.176;8.194;2024-02-21T14:11:34;7.57;;;4.13;;
18443;SDS011;9350;53.176;8.194;2024-02-21T14:14:02;9.93;;;4.20;;
18443;SDS011;9350;53.176;8.194;2024-02-21T14:16:29;7.13;;;4.45;;
18443;SDS011;9350;53.176;8.194;2024-02-21T14:18:56;10.73;;;4.35;;
18443;SDS011;9350;53.176;8.194;2024-02-21T14:21:23;8.30;;;4.95;;
18443;SDS011;9350;53.176;8.194;2024-02-21T14:23:52;8.48;;;4.78;;
18443;SDS011;9350;53.176;8.194;2024-02-21T14:26:18;12.52;;;6.35;;
18443;SDS011;9350;53.176;8.194;2024-02-21T14:28:46;11.93;;;7.13;;
18443;SDS011;9350;53.176;8.194;2024-02-21T14:31:13;14.75;;;7.70;;
18443;SDS011;9350;53.176;8.194;2024-02-21T14:33:40;13.57;;;8.02;;
18443;SDS011;9350;53.176;8.194;2024-02-21T14:36:07;10.63;;;7.95;;
18443;SDS011;9350;53.176;8.194;2024-02-21T14:38:36;10.48;;;7.75;;
18443;SDS011;9350;53.176;8.194;2024-02-21T14:41:04;13.63;;;9.38;;
18443;SDS011;9350;53.176;8.194;2024-02-21T14:43:31;14.93;;;9.15;;